createdAt,value
2023-11-05T00:02:21.724Z,97166.94
2023-11-05T00:07:23.320Z,97161.84
2023-11-05T00:12:24.886Z,97153.03
2023-11-05T00:17:26.508Z,97157.03
2023-11-05T00:22:28.209Z,97172.03
2023-11-05T00:27:29.878Z,97172.03
2023-11-05T00:32:31.532Z,97172.03
2023-11-05T00:37:33.240Z,97193.66
2023-11-05T00:42:34.978Z,97207.81
2023-11-05T00:47:36.659Z,97219.09
2023-11-05T00:52:38.665Z,97226.88
2023-11-05T00:57:40.267Z,97233.88
2023-11-05T01:02:41.911Z,97229.88
2023-11-05T01:07:43.742Z,97232.31
2023-11-05T01:12:45.351Z,97216.28
2023-11-05T01:17:47.002Z,97193.78
2023-11-05T01:22:48.709Z,97181.47
2023-11-05T01:27:50.433Z,97177.75
2023-11-05T01:32:52.081Z,97145.91
2023-11-05T01:37:53.725Z,97102.56
2023-11-05T01:42:58.674Z,97041.63
2023-11-05T01:48:00.593Z,97076.63
2023-11-05T01:53:03.901Z,97097.50
2023-11-05T01:58:05.808Z,97090.25
2023-11-05T02:03:07.499Z,97080.13
2023-11-05T02:08:09.122Z,97078.78
2023-11-05T02:13:10.944Z,97052.56
2023-11-05T02:18:12.794Z,97043.63
2023-11-05T02:23:19.060Z,97047.63
2023-11-05T02:28:20.737Z,97025.91
2023-11-05T02:33:23.575Z,97015.69
2023-11-05T02:38:25.299Z,97018.13
2023-11-05T02:43:27.248Z,97033.38
2023-11-05T02:48:29.203Z,97018.91
2023-11-05T02:53:30.840Z,97000.63
2023-11-05T02:58:32.548Z,97002.72
2023-11-05T03:03:34.352Z,97036.16
2023-11-05T03:08:36.010Z,97059.22
2023-11-05T03:14:02.701Z,97060.78
2023-11-05T03:19:05.151Z,97066.94
2023-11-05T03:24:08.321Z,97062.34
2023-11-05T03:29:10.182Z,97047.03
2023-11-05T03:34:11.831Z,97022.69
2023-11-05T03:39:14.147Z,97008.03
2023-11-05T03:44:16.247Z,96991.75
2023-11-05T03:49:17.832Z,96996.91
2023-11-05T03:54:19.475Z,96981.72
2023-11-05T03:59:21.155Z,96991.66
2023-11-05T04:04:22.871Z,96993.81
2023-11-05T04:09:24.449Z,96994.66
2023-11-05T04:14:27.022Z,96992.25
2023-11-05T04:19:28.808Z,96996.22
2023-11-05T04:24:30.474Z,96998.63
2023-11-05T04:29:35.387Z,97000.00
2023-11-05T04:34:38.897Z,96993.06
2023-11-05T04:39:43.981Z,96994.94
2023-11-05T04:44:45.533Z,97000.31
2023-11-05T04:49:47.234Z,97008.06
2023-11-05T04:54:49.227Z,96990.13
2023-11-05T04:59:50.860Z,97000.84
2023-11-05T05:04:55.324Z,97000.03
2023-11-05T05:09:57.104Z,96971.38
2023-11-05T05:14:58.646Z,96959.63
2023-11-05T05:20:00.353Z,96949.44
2023-11-05T05:25:01.890Z,96943.00
2023-11-05T05:30:04.824Z,96935.00
2023-11-05T05:35:06.691Z,96935.53
2023-11-05T05:40:08.672Z,96946.50
2023-11-05T05:45:11.004Z,96957.50
2023-11-05T05:50:12.559Z,96967.13
2023-11-05T05:55:16.591Z,96993.91
2023-11-05T06:00:18.686Z,97021.97
2023-11-05T06:05:20.274Z,97021.97
2023-11-05T06:10:21.938Z,97006.44
2023-11-05T06:15:23.600Z,96996.56
2023-11-05T06:20:25.655Z,96990.09
2023-11-05T06:25:27.365Z,96979.41
2023-11-05T06:30:29.469Z,96966.03
2023-11-05T06:35:31.006Z,96951.63
2023-11-05T06:40:32.623Z,96955.34
2023-11-05T06:45:34.248Z,96963.91
2023-11-05T06:50:36.147Z,96970.59
2023-11-05T06:55:37.859Z,96927.22
2023-11-05T07:00:42.822Z,96922.13
2023-11-05T07:05:44.363Z,96940.03
2023-11-05T07:10:46.025Z,96896.38
2023-11-05T07:15:47.657Z,96836.09
2023-11-05T07:20:49.375Z,96707.09
2023-11-05T07:25:51.454Z,96810.41
2023-11-05T07:30:53.053Z,96859.88
2023-11-05T07:35:54.725Z,96887.75
2023-11-05T07:40:56.715Z,96923.13
2023-11-05T07:45:58.307Z,96930.88
2023-11-05T07:50:59.826Z,96916.16
2023-11-05T07:56:01.452Z,96921.22
2023-11-05T08:01:04.585Z,96900.63
2023-11-05T08:06:06.252Z,96891.50
2023-11-05T08:11:07.995Z,96889.38
2023-11-05T08:16:09.610Z,96873.31
2023-11-05T08:21:12.380Z,96838.16
2023-11-05T08:26:14.033Z,96804.06
2023-11-05T08:31:15.582Z,96762.00
2023-11-05T08:36:17.229Z,96761.13
2023-11-05T08:41:18.812Z,96782.19
2023-11-05T08:46:20.375Z,96794.03
2023-11-05T08:51:27.118Z,96830.19
2023-11-05T08:56:28.689Z,96843.25
2023-11-05T09:01:30.575Z,96883.81
2023-11-05T09:06:32.285Z,96880.19
2023-11-05T09:11:34.744Z,96836.38
2023-11-05T09:16:36.546Z,96837.84
2023-11-05T09:21:42.600Z,96859.88
2023-11-05T09:26:44.215Z,96867.16
2023-11-05T09:31:45.946Z,96869.97
2023-11-05T09:36:47.544Z,96850.38
2023-11-05T09:41:49.203Z,96823.88
2023-11-05T09:51:55.203Z,96854.19
2023-11-05T09:56:57.472Z,96849.81
2023-11-05T10:01:59.740Z,96850.84
2023-11-05T10:07:01.455Z,96832.06
2023-11-05T10:12:04.535Z,96846.88
2023-11-05T10:17:06.315Z,96840.41
2023-11-05T10:22:16.858Z,96832.50
2023-11-05T10:27:37.067Z,96845.38
2023-11-05T10:32:40.092Z,96860.13
2023-11-05T10:37:43.217Z,96846.78
2023-11-05T10:42:47.067Z,96843.69
2023-11-05T10:47:49.572Z,96838.31
2023-11-05T10:52:57.176Z,96846.09
2023-11-05T10:58:10.344Z,96838.19
2023-11-05T11:03:20.556Z,96839.59
2023-11-05T11:08:26.472Z,96833.88
2023-11-05T11:13:31.657Z,96835.31
2023-11-05T11:18:34.077Z,96823.09
2023-11-05T11:23:36.981Z,96820.34
2023-11-05T11:28:38.622Z,96828.41
2023-11-05T11:33:40.311Z,96851.31
2023-11-05T11:38:43.157Z,96868.75
2023-11-05T11:43:45.632Z,96878.03
2023-11-05T11:48:47.292Z,96884.91
2023-11-05T11:53:48.980Z,96912.53
2023-11-05T11:58:50.677Z,96916.91
2023-11-05T12:03:52.441Z,96923.84
2023-11-05T12:08:55.504Z,96936.22
2023-11-05T12:13:57.485Z,96939.00
2023-11-05T12:18:59.126Z,96934.94
2023-11-05T12:24:01.931Z,96959.53
2023-11-05T12:29:03.937Z,96969.59
2023-11-05T12:34:05.788Z,96975.31
2023-11-05T12:39:07.656Z,96985.19
2023-11-05T12:44:09.278Z,96981.00
2023-11-05T12:49:10.906Z,96999.66
2023-11-05T12:54:13.104Z,96999.16
2023-11-05T12:59:14.802Z,97008.09
2023-11-05T13:04:17.072Z,97018.75
2023-11-05T13:09:19.497Z,97011.41
2023-11-05T13:14:24.934Z,96991.97
2023-11-05T13:19:27.401Z,97008.75
2023-11-05T13:24:29.542Z,97032.72
2023-11-05T13:29:31.798Z,97065.44
2023-11-05T13:34:33.721Z,97077.81
2023-11-05T13:39:35.696Z,97102.03
2023-11-05T13:44:39.367Z,97103.28
2023-11-05T13:49:41.957Z,97105.28
2023-11-05T13:54:44.348Z,97101.25
2023-11-05T13:59:47.401Z,97109.88
2023-11-05T14:04:49.865Z,97125.34
2023-11-05T14:09:51.751Z,97116.50
2023-11-05T14:14:53.491Z,97132.28
2023-11-05T14:19:55.771Z,97156.88
2023-11-05T14:24:57.431Z,97159.06
2023-11-05T14:29:59.579Z,97168.81
2023-11-05T14:35:03.292Z,97166.34
2023-11-05T14:40:10.749Z,97185.25
2023-11-05T14:45:22.565Z,97209.59
2023-11-05T14:50:34.697Z,97213.41
2023-11-05T14:55:36.494Z,97229.59
2023-11-05T15:00:39.690Z,97220.72
2023-11-05T15:05:42.348Z,97227.03
2023-11-05T15:10:44.344Z,97256.84
2023-11-05T15:15:46.885Z,97284.59
2023-11-05T15:20:48.663Z,97329.63
2023-11-05T15:25:51.574Z,97350.50
2023-11-05T15:30:56.016Z,97388.69
2023-11-05T15:35:58.264Z,97419.75
2023-11-05T15:41:00.573Z,97415.78
2023-11-05T15:46:05.458Z,97426.84
2023-11-05T15:51:08.506Z,97412.84
2023-11-05T15:56:10.520Z,97365.97
2023-11-05T16:01:13.981Z,97375.81
2023-11-05T16:06:15.822Z,97381.56
2023-11-05T16:11:17.909Z,97386.13
2023-11-05T16:16:20.481Z,97381.66
2023-11-05T16:21:23.177Z,97384.63
2023-11-05T16:26:26.468Z,97388.28
2023-11-05T16:31:30.193Z,97383.97
2023-11-05T16:36:33.458Z,97394.47
2023-11-05T16:41:36.765Z,97420.25
2023-11-05T16:46:39.865Z,97430.28
2023-11-05T16:51:47.042Z,97435.69
2023-11-05T16:56:51.900Z,97456.22
2023-11-05T17:01:55.582Z,97456.25
2023-11-05T17:06:59.156Z,97460.94
2023-11-05T17:12:02.506Z,97467.56
2023-11-05T17:17:06.550Z,97491.22
2023-11-05T17:22:09.974Z,97486.72
2023-11-05T17:27:13.358Z,97494.56
2023-11-05T17:32:16.744Z,97489.25
2023-11-05T17:37:20.340Z,97497.19
2023-11-05T17:42:23.739Z,97506.41
2023-11-05T17:47:27.318Z,97512.88
2023-11-05T17:52:33.074Z,97535.72
2023-11-05T17:57:37.163Z,97556.69
2023-11-05T18:02:44.464Z,97569.03
2023-11-05T18:07:49.778Z,97579.50
2023-11-05T18:12:53.266Z,97587.00
2023-11-05T18:17:58.646Z,97597.69
2023-11-05T18:23:03.552Z,97617.53
2023-11-05T18:28:08.957Z,97620.19
2023-11-05T18:33:13.840Z,97648.91
2023-11-05T18:38:20.923Z,97662.03
2023-11-05T18:43:24.731Z,97658.31
2023-11-05T18:48:28.708Z,97680.28
2023-11-05T18:53:32.231Z,97688.38
2023-11-05T18:58:36.173Z,97683.09
2023-11-05T19:03:39.906Z,97687.41
2023-11-05T19:08:43.882Z,97683.63
2023-11-05T19:13:54.500Z,97698.94
2023-11-05T19:19:03.158Z,97707.78
2023-11-05T19:24:07.159Z,97714.22
2023-11-05T19:29:10.907Z,97714.22
2023-11-05T19:34:17.528Z,97740.78
2023-11-05T19:39:23.096Z,97749.13
2023-11-05T19:44:26.512Z,97757.75
2023-11-05T19:49:36.343Z,97754.53
2023-11-05T19:54:41.654Z,97768.78
2023-11-05T19:59:47.121Z,97797.56
2023-11-05T20:04:55.887Z,97798.31
2023-11-05T20:10:02.348Z,97816.56
2023-11-05T20:15:07.686Z,97822.34
2023-11-05T20:20:11.801Z,97841.56
2023-11-05T20:25:19.022Z,97852.69
2023-11-05T20:30:22.562Z,97861.84
2023-11-05T20:35:25.833Z,97882.06
2023-11-05T20:40:30.645Z,97878.81
2023-11-05T20:45:35.745Z,97893.88
2023-11-05T20:50:39.143Z,97906.84
2023-11-05T20:55:42.635Z,97928.97
2023-11-05T21:00:44.622Z,97945.19
2023-11-05T21:05:46.240Z,97942.88
2023-11-05T21:10:55.022Z,97960.47
2023-11-05T21:15:59.953Z,97967.25
2023-11-05T21:21:01.595Z,97977.19
2023-11-05T21:26:03.416Z,97988.47
2023-11-05T21:31:05.118Z,97995.94
2023-11-05T21:36:07.247Z,98006.94
2023-11-05T21:41:08.902Z,98005.53
2023-11-05T21:46:14.405Z,98025.22
2023-11-05T21:51:16.593Z,98021.41
2023-11-05T21:56:19.538Z,98049.13
2023-11-05T22:01:21.154Z,98056.44
2023-11-05T22:06:22.827Z,98074.53
2023-11-05T22:11:24.442Z,98067.53
2023-11-05T22:16:26.488Z,98088.25
2023-11-05T22:21:28.074Z,98105.53
2023-11-05T22:26:29.717Z,98135.69
2023-11-05T22:31:31.986Z,98134.84
2023-11-05T22:36:35.070Z,98146.72
2023-11-05T22:41:36.628Z,98161.56
2023-11-05T22:46:38.267Z,98175.31
2023-11-05T22:51:40.094Z,98192.28
2023-11-05T22:56:44.754Z,98206.59
2023-11-05T23:01:46.433Z,98222.78
2023-11-05T23:06:49.451Z,98228.16
2023-11-05T23:11:51.181Z,98239.47
2023-11-05T23:16:52.818Z,98245.94
2023-11-05T23:21:54.437Z,98257.84
2023-11-05T23:26:56.322Z,98268.34
2023-11-05T23:31:57.986Z,98269.47
2023-11-05T23:36:59.598Z,98263.00
2023-11-05T23:42:01.340Z,98264.91
2023-11-05T23:47:02.952Z,98287.78
2023-11-05T23:52:04.826Z,98287.75
2023-11-05T23:57:06.460Z,98291.25
